sensor_id;sensor_type;location;lat;lon;timestamp;pressure;altitude;pressure_sealevel;temperature;humidity
22743;BME280;11538;48.884;8.696;2023-09-07T00:00:33;99026.56;;;19.39;81.28
22743;BME280;11538;48.884;8.696;2023-09-07T00:03:00;99034.50;;;19.41;81.08
22743;BME280;11538;48.884;8.696;2023-09-07T00:05:27;99040.69;;;19.38;80.88
22743;BME280;11538;48.884;8.696;2023-09-07T00:07:54;99031.88;;;19.32;81.20
22743;BME280;11538;48.884;8.696;2023-09-07T00:10:23;99039.25;;;19.28;80.55
22743;BME280;11538;48.884;8.696;2023-09-07T00:12:52;99034.19;;;19.30;80.72
22743;BME280;11538;48.884;8.696;2023-09-07T00:15:20;99033.03;;;19.31;80.42
22743;BME280;11538;48.884;8.696;2023-09-07T00:17:47;99038.53;;;19.31;80.51
22743;BME280;11538;48.884;8.696;2023-09-07T00:20:14;99029.22;;;19.20;80.76
22743;BME280;11538;48.884;8.696;2023-09-07T00:22:41;99031.31;;;19.10;81.31
22743;BME280;11538;48.884;8.696;2023-09-07T00:25:08;99030.44;;;19.06;81.49
22743;BME280;11538;48.884;8.696;2023-09-07T00:27:36;99029.59;;;19.06;82.03
22743;BME280;11538;48.884;8.696;2023-09-07T00:30:03;99034.13;;;18.98;82.42
22743;BME280;11538;48.884;8.696;2023-09-07T00:32:37;99030.25;;;18.87;83.01
22743;BME280;11538;48.884;8.696;2023-09-07T00:35:05;99030.38;;;18.78;83.69
22743;BME280;11538;48.884;8.696;2023-09-07T00:37:33;99032.09;;;18.82;83.49
22743;BME280;11538;48.884;8.696;2023-09-07T00:40:00;99022.38;;;18.73;83.67
22743;BME280;11538;48.884;8.696;2023-09-07T00:42:27;99027.56;;;18.74;83.77
22743;BME280;11538;48.884;8.696;2023-09-07T00:44:54;99026.06;;;18.64;84.48
22743;BME280;11538;48.884;8.696;2023-09-07T00:47:22;99030.22;;;18.58;84.47
22743;BME280;11538;48.884;8.696;2023-09-07T00:49:50;99026.44;;;18.50;84.83
22743;BME280;11538;48.884;8.696;2023-09-07T00:52:18;99028.44;;;18.37;86.07
22743;BME280;11538;48.884;8.696;2023-09-07T00:54:46;99032.53;;;18.44;85.38
22743;BME280;11538;48.884;8.696;2023-09-07T00:57:13;99027.25;;;18.51;85.19
22743;BME280;11538;48.884;8.696;2023-09-07T00:59:40;99028.50;;;18.53;85.12
22743;BME280;11538;48.884;8.696;2023-09-07T01:02:07;99031.50;;;18.48;85.22
22743;BME280;11538;48.884;8.696;2023-09-07T01:04:35;99031.63;;;18.39;85.55
22743;BME280;11538;48.884;8.696;2023-09-07T01:07:20;99030.81;;;18.39;85.73
22743;BME280;11538;48.884;8.696;2023-09-07T01:09:54;99030.81;;;18.39;85.59
22743;BME280;11538;48.884;8.696;2023-09-07T01:12:22;99027.84;;;18.32;86.25
22743;BME280;11538;48.884;8.696;2023-09-07T01:14:49;99025.81;;;18.29;86.57
22743;BME280;11538;48.884;8.696;2023-09-07T01:17:16;99029.47;;;18.33;86.72
22743;BME280;11538;48.884;8.696;2023-09-07T01:19:45;99022.13;;;18.37;86.33
22743;BME280;11538;48.884;8.696;2023-09-07T01:22:14;99015.97;;;18.27;86.66
22743;BME280;11538;48.884;8.696;2023-09-07T01:24:42;99016.22;;;18.22;86.71
22743;BME280;11538;48.884;8.696;2023-09-07T01:27:09;99015.31;;;18.18;87.08
22743;BME280;11538;48.884;8.696;2023-09-07T01:29:37;99016.81;;;18.16;87.30
22743;BME280;11538;48.884;8.696;2023-09-07T01:32:05;99020.47;;;18.07;87.54
22743;BME280;11538;48.884;8.696;2023-09-07T01:34:32;99019.56;;;18.03;88.00
22743;BME280;11538;48.884;8.696;2023-09-07T01:36:59;99021.69;;;17.97;88.07
22743;BME280;11538;48.884;8.696;2023-09-07T01:39:26;99019.88;;;18.02;87.75
22743;BME280;11538;48.884;8.696;2023-09-07T01:41:53;99023.53;;;18.06;87.69
22743;BME280;11538;48.884;8.696;2023-09-07T01:44:20;99016.59;;;18.08;87.51
22743;BME280;11538;48.884;8.696;2023-09-07T01:46:47;99019.88;;;18.02;88.19
22743;BME280;11538;48.884;8.696;2023-09-07T01:49:14;99019.41;;;18.00;88.37
22743;BME280;11538;48.884;8.696;2023-09-07T01:51:41;99020.31;;;17.91;88.77
22743;BME280;11538;48.884;8.696;2023-09-07T01:54:08;99017.03;;;17.98;88.29
22743;BME280;11538;48.884;8.696;2023-09-07T01:56:37;99014.59;;;17.96;87.84
22743;BME280;11538;48.884;8.696;2023-09-07T01:59:05;99023.19;;;17.95;88.31
22743;BME280;11538;48.884;8.696;2023-09-07T02:01:33;99025.13;;;17.94;87.85
22743;BME280;11538;48.884;8.696;2023-09-07T02:04:04;99032.91;;;17.80;88.67
22743;BME280;11538;48.884;8.696;2023-09-07T02:06:31;99023.16;;;17.70;89.60
22743;BME280;11538;48.884;8.696;2023-09-07T02:08:58;99020.53;;;17.61;90.30
22743;BME280;11538;48.884;8.696;2023-09-07T02:11:25;99021.78;;;17.64;89.85
22743;BME280;11538;48.884;8.696;2023-09-07T02:13:52;99018.38;;;17.67;89.86
22743;BME280;11538;48.884;8.696;2023-09-07T02:16:19;99020.09;;;17.72;89.26
22743;BME280;11538;48.884;8.696;2023-09-07T02:18:50;99013.78;;;17.71;89.35
22743;BME280;11538;48.884;8.696;2023-09-07T02:21:17;99023.38;;;17.65;89.21
22743;BME280;11538;48.884;8.696;2023-09-07T02:23:44;99018.25;;;17.63;89.67
22743;BME280;11538;48.884;8.696;2023-09-07T02:26:11;99015.75;;;17.71;88.87
22743;BME280;11538;48.884;8.696;2023-09-07T02:28:38;99021.47;;;17.65;88.80
22743;BME280;11538;48.884;8.696;2023-09-07T02:31:06;99018.25;;;17.63;89.01
22743;BME280;11538;48.884;8.696;2023-09-07T02:33:33;99017.56;;;17.54;89.65
22743;BME280;11538;48.884;8.696;2023-09-07T02:36:02;99020.41;;;17.58;89.00
22743;BME280;11538;48.884;8.696;2023-09-07T02:38:29;99015.28;;;17.56;89.47
22743;BME280;11538;48.884;8.696;2023-09-07T02:40:57;99029.53;;;17.49;89.34
22743;BME280;11538;48.884;8.696;2023-09-07T02:43:25;99025.19;;;17.48;89.54
22743;BME280;11538;48.884;8.696;2023-09-07T02:45:53;99020.72;;;17.31;90.57
22743;BME280;11538;48.884;8.696;2023-09-07T02:48:21;99028.81;;;17.28;90.89
22743;BME280;11538;48.884;8.696;2023-09-07T02:50:48;99024.16;;;17.28;91.20
22743;BME280;11538;48.884;8.696;2023-09-07T02:53:17;99024.38;;;17.23;91.39
22743;BME280;11538;48.884;8.696;2023-09-07T02:55:44;99018.81;;;17.10;92.05
22743;BME280;11538;48.884;8.696;2023-09-07T02:58:11;99021.56;;;17.10;92.18
22743;BME280;11538;48.884;8.696;2023-09-07T03:00:45;99017.88;;;17.06;92.31
22743;BME280;11538;48.884;8.696;2023-09-07T03:03:14;99016.31;;;17.18;91.65
22743;BME280;11538;48.884;8.696;2023-09-07T03:05:43;99013.94;;;17.16;91.88
22743;BME280;11538;48.884;8.696;2023-09-07T03:08:10;99018.56;;;17.03;92.43
22743;BME280;11538;48.884;8.696;2023-09-07T03:10:38;99012.63;;;17.01;92.74
22743;BME280;11538;48.884;8.696;2023-09-07T03:13:10;99009.19;;;17.04;92.55
22743;BME280;11538;48.884;8.696;2023-09-07T03:15:37;99010.03;;;17.05;92.43
22743;BME280;11538;48.884;8.696;2023-09-07T03:18:04;99008.00;;;16.93;92.90
22743;BME280;11538;48.884;8.696;2023-09-07T03:20:35;99002.97;;;16.95;92.92
22743;BME280;11538;48.884;8.696;2023-09-07T03:23:02;99006.69;;;16.99;92.77
22743;BME280;11538;48.884;8.696;2023-09-07T03:25:30;99003.88;;;17.08;92.14
22743;BME280;11538;48.884;8.696;2023-09-07T03:27:57;98998.63;;;17.15;91.50
22743;BME280;11538;48.884;8.696;2023-09-07T03:30:24;99002.63;;;17.18;90.69
22743;BME280;11538;48.884;8.696;2023-09-07T03:32:51;99004.91;;;17.16;91.33
22743;BME280;11538;48.884;8.696;2023-09-07T03:35:19;99000.69;;;17.18;90.71
22743;BME280;11538;48.884;8.696;2023-09-07T03:37:46;99000.81;;;17.22;90.05
22743;BME280;11538;48.884;8.696;2023-09-07T03:40:14;98997.34;;;17.13;90.54
22743;BME280;11538;48.884;8.696;2023-09-07T03:42:41;99007.19;;;17.14;90.42
22743;BME280;11538;48.884;8.696;2023-09-07T03:45:10;98998.25;;;17.04;91.05
22743;BME280;11538;48.884;8.696;2023-09-07T03:47:37;99004.59;;;16.96;91.27
22743;BME280;11538;48.884;8.696;2023-09-07T03:50:05;98997.72;;;16.90;91.93
22743;BME280;11538;48.884;8.696;2023-09-07T03:52:33;99000.00;;;16.88;91.94
22743;BME280;11538;48.884;8.696;2023-09-07T03:55:01;98993.84;;;16.91;91.75
22743;BME280;11538;48.884;8.696;2023-09-07T03:57:28;98991.69;;;16.96;91.41
22743;BME280;11538;48.884;8.696;2023-09-07T03:59:57;98992.97;;;16.99;91.25
22743;BME280;11538;48.884;8.696;2023-09-07T04:02:24;98996.53;;;17.00;91.26
22743;BME280;11538;48.884;8.696;2023-09-07T04:04:54;98992.69;;;16.92;91.64
22743;BME280;11538;48.884;8.696;2023-09-07T04:07:22;98997.03;;;16.93;91.87
22743;BME280;11538;48.884;8.696;2023-09-07T04:09:50;98998.63;;;16.94;92.48
22743;BME280;11538;48.884;8.696;2023-09-07T04:12:17;98997.50;;;16.95;93.67
22743;BME280;11538;48.884;8.696;2023-09-07T04:14:44;98994.94;;;16.99;92.93
22743;BME280;11538;48.884;8.696;2023-09-07T04:17:11;98995.41;;;17.01;92.36
22743;BME280;11538;48.884;8.696;2023-09-07T04:19:38;98997.91;;;17.06;91.57
22743;BME280;11538;48.884;8.696;2023-09-07T04:22:06;98999.16;;;17.08;91.18
22743;BME280;11538;48.884;8.696;2023-09-07T04:24:32;98985.22;;;17.01;91.59
22743;BME280;11538;48.884;8.696;2023-09-07T04:27:01;98997.31;;;17.00;91.61
22743;BME280;11538;48.884;8.696;2023-09-07T04:29:29;98994.25;;;17.02;92.01
22743;BME280;11538;48.884;8.696;2023-09-07T04:31:56;98996.63;;;17.03;92.70
22743;BME280;11538;48.884;8.696;2023-09-07T04:34:24;98996.31;;;17.05;92.50
22743;BME280;11538;48.884;8.696;2023-09-07T04:36:51;98983.63;;;17.00;92.18
22743;BME280;11538;48.884;8.696;2023-09-07T04:39:19;98987.50;;;16.99;93.08
22743;BME280;11538;48.884;8.696;2023-09-07T04:41:46;98991.09;;;16.91;93.85
22743;BME280;11538;48.884;8.696;2023-09-07T04:44:14;98992.91;;;16.87;94.00
22743;BME280;11538;48.884;8.696;2023-09-07T04:46:41;98993.16;;;16.94;93.28
22743;BME280;11538;48.884;8.696;2023-09-07T04:49:08;98991.91;;;16.91;93.35
22743;BME280;11538;48.884;8.696;2023-09-07T04:51:35;98984.63;;;16.95;93.01
22743;BME280;11538;48.884;8.696;2023-09-07T04:54:02;98992.03;;;16.95;91.98
22743;BME280;11538;48.884;8.696;2023-09-07T04:56:29;98992.59;;;16.88;92.21
22743;BME280;11538;48.884;8.696;2023-09-07T04:58:56;98996.09;;;16.89;91.90
22743;BME280;11538;48.884;8.696;2023-09-07T05:01:23;98993.38;;;16.89;91.91
22743;BME280;11538;48.884;8.696;2023-09-07T05:03:51;98996.06;;;16.98;91.36
22743;BME280;11538;48.884;8.696;2023-09-07T05:06:18;98996.19;;;17.01;91.24
22743;BME280;11538;48.884;8.696;2023-09-07T05:08:45;99002.00;;;17.00;91.84
22743;BME280;11538;48.884;8.696;2023-09-07T05:11:13;98991.75;;;16.88;92.69
22743;BME280;11538;48.884;8.696;2023-09-07T05:13:40;98997.91;;;16.85;93.51
22743;BME280;11538;48.884;8.696;2023-09-07T05:16:07;98992.78;;;16.83;93.88
22743;BME280;11538;48.884;8.696;2023-09-07T05:18:34;98994.72;;;16.83;94.41
22743;BME280;11538;48.884;8.696;2023-09-07T05:21:14;98998.53;;;16.90;93.71
22743;BME280;11538;48.884;8.696;2023-09-07T05:23:42;98984.69;;;16.87;93.94
22743;BME280;11538;48.884;8.696;2023-09-07T05:26:09;99002.88;;;16.91;93.81
22743;BME280;11538;48.884;8.696;2023-09-07T05:28:36;98992.22;;;16.90;94.04
22743;BME280;11538;48.884;8.696;2023-09-07T05:31:04;99000.53;;;16.81;94.46
22743;BME280;11538;48.884;8.696;2023-09-07T05:33:31;99010.03;;;16.84;95.10
22743;BME280;11538;48.884;8.696;2023-09-07T05:35:58;99008.56;;;16.86;95.30
22743;BME280;11538;48.884;8.696;2023-09-07T05:38:25;99015.03;;;16.81;95.44
22743;BME280;11538;48.884;8.696;2023-09-07T05:40:53;99010.38;;;16.82;95.77
22743;BME280;11538;48.884;8.696;2023-09-07T05:43:21;99019.16;;;16.88;95.20
22743;BME280;11538;48.884;8.696;2023-09-07T05:45:48;99013.00;;;16.91;94.54
22743;BME280;11538;48.884;8.696;2023-09-07T05:48:15;99014.97;;;16.90;94.61
22743;BME280;11538;48.884;8.696;2023-09-07T05:50:45;99021.69;;;16.93;94.37
22743;BME280;11538;48.884;8.696;2023-09-07T05:53:12;99020.91;;;16.92;94.83
22743;BME280;11538;48.884;8.696;2023-09-07T05:55:39;99024.72;;;17.00;94.55
22743;BME280;11538;48.884;8.696;2023-09-07T05:58:08;99023.84;;;17.08;94.40
22743;BME280;11538;48.884;8.696;2023-09-07T06:00:36;99020.63;;;17.06;95.00
22743;BME280;11538;48.884;8.696;2023-09-07T06:03:05;99026.34;;;17.14;93.89
22743;BME280;11538;48.884;8.696;2023-09-07T06:05:34;99026.59;;;17.21;93.85
22743;BME280;11538;48.884;8.696;2023-09-07T06:08:03;99015.25;;;17.31;93.25
22743;BME280;11538;48.884;8.696;2023-09-07T06:10:30;99023.56;;;17.35;92.50
22743;BME280;11538;48.884;8.696;2023-09-07T06:12:57;99017.75;;;17.36;92.18
22743;BME280;11538;48.884;8.696;2023-09-07T06:15:27;99019.59;;;17.45;92.02
22743;BME280;11538;48.884;8.696;2023-09-07T06:17:54;99013.00;;;17.58;91.69
22743;BME280;11538;48.884;8.696;2023-09-07T06:20:21;99015.97;;;17.65;90.78
22743;BME280;11538;48.884;8.696;2023-09-07T06:22:49;99011.88;;;17.72;90.10
22743;BME280;11538;48.884;8.696;2023-09-07T06:25:16;99020.31;;;17.79;89.50
22743;BME280;11538;48.884;8.696;2023-09-07T06:27:43;99023.53;;;17.81;89.30
22743;BME280;11538;48.884;8.696;2023-09-07T06:30:11;99029.69;;;17.90;89.27
22743;BME280;11538;48.884;8.696;2023-09-07T06:32:37;99026.97;;;18.03;89.70
22743;BME280;11538;48.884;8.696;2023-09-07T06:35:06;99036.13;;;18.07;90.31
22743;BME280;11538;48.884;8.696;2023-09-07T06:37:33;99028.03;;;18.10;90.29
22743;BME280;11538;48.884;8.696;2023-09-07T06:40:00;99030.06;;;18.14;90.97
22743;BME280;11538;48.884;8.696;2023-09-07T06:42:27;99034.41;;;18.15;91.24
22743;BME280;11538;48.884;8.696;2023-09-07T06:44:54;99033.38;;;18.19;91.00
22743;BME280;11538;48.884;8.696;2023-09-07T06:47:21;99033.59;;;18.26;90.24
22743;BME280;11538;48.884;8.696;2023-09-07T06:49:47;99038.59;;;18.37;90.30
22743;BME280;11538;48.884;8.696;2023-09-07T06:52:15;99035.63;;;18.42;90.81
22743;BME280;11538;48.884;8.696;2023-09-07T06:54:42;99041.31;;;18.49;89.72
22743;BME280;11538;48.884;8.696;2023-09-07T06:57:09;99045.22;;;18.61;88.93
22743;BME280;11538;48.884;8.696;2023-09-07T06:59:36;99044.28;;;18.69;87.63
22743;BME280;11538;48.884;8.696;2023-09-07T07:02:03;99041.81;;;18.80;87.84
22743;BME280;11538;48.884;8.696;2023-09-07T07:04:32;99043.63;;;18.88;87.79
22743;BME280;11538;48.884;8.696;2023-09-07T07:06:59;99043.28;;;18.90;87.93
22743;BME280;11538;48.884;8.696;2023-09-07T07:09:28;99045.44;;;18.96;87.94
22743;BME280;11538;48.884;8.696;2023-09-07T07:11:59;99047.63;;;19.03;87.83
22743;BME280;11538;48.884;8.696;2023-09-07T07:14:28;99047.44;;;19.12;87.11
22743;BME280;11538;48.884;8.696;2023-09-07T07:16:55;99048.91;;;19.22;85.62
22743;BME280;11538;48.884;8.696;2023-09-07T07:19:22;99038.81;;;19.26;85.10
22743;BME280;11538;48.884;8.696;2023-09-07T07:21:49;99038.28;;;19.36;84.74
22743;BME280;11538;48.884;8.696;2023-09-07T07:24:16;99039.63;;;19.42;84.74
22743;BME280;11538;48.884;8.696;2023-09-07T07:26:45;99045.75;;;19.52;84.36
22743;BME280;11538;48.884;8.696;2023-09-07T07:29:12;99039.38;;;19.64;83.66
22743;BME280;11538;48.884;8.696;2023-09-07T07:31:39;99043.28;;;19.79;83.66
22743;BME280;11538;48.884;8.696;2023-09-07T07:34:06;99048.03;;;19.94;82.88
22743;BME280;11538;48.884;8.696;2023-09-07T07:36:33;99038.06;;;20.06;82.05
22743;BME280;11538;48.884;8.696;2023-09-07T07:39:00;99038.75;;;20.19;81.59
22743;BME280;11538;48.884;8.696;2023-09-07T07:41:27;99046.59;;;20.36;80.43
22743;BME280;11538;48.884;8.696;2023-09-07T07:43:54;99042.75;;;20.57;79.64
22743;BME280;11538;48.884;8.696;2023-09-07T07:46:21;99034.56;;;20.80;78.28
22743;BME280;11538;48.884;8.696;2023-09-07T07:48:48;99041.97;;;20.96;77.73
22743;BME280;11538;48.884;8.696;2023-09-07T07:51:15;99035.66;;;21.15;77.07
22743;BME280;11538;48.884;8.696;2023-09-07T07:53:42;99031.03;;;21.42;76.23
22743;BME280;11538;48.884;8.696;2023-09-07T07:56:17;99029.84;;;21.63;74.58
22743;BME280;11538;48.884;8.696;2023-09-07T07:58:45;99040.38;;;21.81;73.89
22743;BME280;11538;48.884;8.696;2023-09-07T08:01:19;99033.59;;;22.01;72.00
22743;BME280;11538;48.884;8.696;2023-09-07T08:03:51;99035.09;;;22.22;71.37
22743;BME280;11538;48.884;8.696;2023-09-07T08:06:19;99035.09;;;22.49;70.29
22743;BME280;11538;48.884;8.696;2023-09-07T08:08:46;99030.38;;;22.80;69.26
22743;BME280;11538;48.884;8.696;2023-09-07T08:11:12;99036.59;;;23.07;67.79
22743;BME280;11538;48.884;8.696;2023-09-07T08:13:40;99031.59;;;23.20;66.90
22743;BME280;11538;48.884;8.696;2023-09-07T08:16:08;99038.94;;;23.40;66.43
22743;BME280;11538;48.884;8.696;2023-09-07T08:18:39;99036.44;;;23.69;65.98
22743;BME280;11538;48.884;8.696;2023-09-07T08:21:07;99031.88;;;23.91;63.53
22743;BME280;11538;48.884;8.696;2023-09-07T08:23:34;99026.53;;;24.16;64.00
22743;BME280;11538;48.884;8.696;2023-09-07T08:26:01;99032.28;;;24.56;63.23
22743;BME280;11538;48.884;8.696;2023-09-07T08:28:29;99037.22;;;24.85;62.01
22743;BME280;11538;48.884;8.696;2023-09-07T08:30:57;99043.22;;;25.08;61.67
22743;BME280;11538;48.884;8.696;2023-09-07T08:33:26;99035.75;;;25.31;60.08
22743;BME280;11538;48.884;8.696;2023-09-07T08:35:56;99037.41;;;25.46;59.40
22743;BME280;11538;48.884;8.696;2023-09-07T08:38:24;99037.41;;;25.53;59.29
22743;BME280;11538;48.884;8.696;2023-09-07T08:40:55;99035.81;;;25.78;59.51
22743;BME280;11538;48.884;8.696;2023-09-07T08:43:29;99027.84;;;26.05;57.74
22743;BME280;11538;48.884;8.696;2023-09-07T08:46:18;99025.84;;;26.31;57.04
22743;BME280;11538;48.884;8.696;2023-09-07T08:48:50;99025.41;;;26.43;57.33
22743;BME280;11538;48.884;8.696;2023-09-07T08:51:19;99028.50;;;26.71;56.83
22743;BME280;11538;48.884;8.696;2023-09-07T08:53:46;99023.69;;;26.90;56.73
22743;BME280;11538;48.884;8.696;2023-09-07T08:56:16;99031.22;;;26.96;55.20
22743;BME280;11538;48.884;8.696;2023-09-07T08:58:43;99028.72;;;27.09;55.98
22743;BME280;11538;48.884;8.696;2023-09-07T09:01:12;99027.47;;;27.25;55.51
22743;BME280;11538;48.884;8.696;2023-09-07T09:03:42;99032.28;;;27.21;54.49
22743;BME280;11538;48.884;8.696;2023-09-07T09:06:11;99029.84;;;27.26;54.38
22743;BME280;11538;48.884;8.696;2023-09-07T09:08:46;99032.91;;;27.47;55.85
22743;BME280;11538;48.884;8.696;2023-09-07T09:11:17;99028.84;;;27.58;56.68
22743;BME280;11538;48.884;8.696;2023-09-07T09:13:45;99034.09;;;27.42;55.11
22743;BME280;11538;48.884;8.696;2023-09-07T09:16:13;99037.53;;;27.68;54.23
22743;BME280;11538;48.884;8.696;2023-09-07T09:18:57;99029.56;;;27.70;53.13
22743;BME280;11538;48.884;8.696;2023-09-07T09:21:26;99026.75;;;27.70;51.88
22743;BME280;11538;48.884;8.696;2023-09-07T09:23:57;99015.56;;;27.77;53.90
22743;BME280;11538;48.884;8.696;2023-09-07T09:26:24;99014.94;;;28.00;55.06
22743;BME280;11538;48.884;8.696;2023-09-07T09:28:56;99023.63;;;28.13;52.22
22743;BME280;11538;48.884;8.696;2023-09-07T09:31:24;99011.88;;;28.33;54.93
22743;BME280;11538;48.884;8.696;2023-09-07T09:33:52;99013.19;;;28.56;52.55
22743;BME280;11538;48.884;8.696;2023-09-07T09:36:21;99015.91;;;28.63;53.17
22743;BME280;11538;48.884;8.696;2023-09-07T09:38:51;99006.59;;;28.73;52.60
22743;BME280;11538;48.884;8.696;2023-09-07T09:41:20;99011.13;;;28.64;50.47
22743;BME280;11538;48.884;8.696;2023-09-07T09:43:50;99011.13;;;28.64;51.13
22743;BME280;11538;48.884;8.696;2023-09-07T09:46:19;99003.44;;;28.71;50.77
22743;BME280;11538;48.884;8.696;2023-09-07T09:48:48;99012.09;;;28.84;50.43
22743;BME280;11538;48.884;8.696;2023-09-07T09:51:15;99010.44;;;29.18;51.98
22743;BME280;11538;48.884;8.696;2023-09-07T09:53:42;99006.69;;;29.28;50.49
22743;BME280;11538;48.884;8.696;2023-09-07T09:56:10;99008.03;;;29.16;49.01
22743;BME280;11538;48.884;8.696;2023-09-07T09:58:38;99007.09;;;29.27;51.84
22743;BME280;11538;48.884;8.696;2023-09-07T10:01:07;99014.94;;;29.36;49.96
22743;BME280;11538;48.884;8.696;2023-09-07T10:03:41;99016.69;;;29.53;50.91
22743;BME280;11538;48.884;8.696;2023-09-07T10:06:24;99011.47;;;29.55;49.42
22743;BME280;11538;48.884;8.696;2023-09-07T10:09:06;99012.81;;;29.71;49.04
22743;BME280;11538;48.884;8.696;2023-09-07T10:11:37;99015.69;;;29.91;50.10
22743;BME280;11538;48.884;8.696;2023-09-07T10:14:07;99010.72;;;29.99;48.70
22743;BME280;11538;48.884;8.696;2023-09-07T10:16:47;99011.13;;;30.01;47.76
22743;BME280;11538;48.884;8.696;2023-09-07T10:19:24;99002.59;;;29.84;48.20
22743;BME280;11538;48.884;8.696;2023-09-07T10:21:54;99000.66;;;29.81;49.51
22743;BME280;11538;48.884;8.696;2023-09-07T10:24:27;99000.84;;;29.94;51.12
22743;BME280;11538;48.884;8.696;2023-09-07T10:27:07;99002.31;;;30.23;48.19
22743;BME280;11538;48.884;8.696;2023-09-07T10:29:51;98997.75;;;30.32;47.00
22743;BME280;11538;48.884;8.696;2023-09-07T10:32:22;98999.59;;;30.39;47.97
22743;BME280;11538;48.884;8.696;2023-09-07T10:34:50;98989.09;;;30.67;48.32
22743;BME280;11538;48.884;8.696;2023-09-07T10:37:17;98988.34;;;30.83;46.10
22743;BME280;11538;48.884;8.696;2023-09-07T10:39:45;98983.09;;;30.85;46.45
22743;BME280;11538;48.884;8.696;2023-09-07T10:42:25;98981.47;;;31.04;45.71
22743;BME280;11538;48.884;8.696;2023-09-07T10:44:53;98979.63;;;31.14;45.61
22743;BME280;11538;48.884;8.696;2023-09-07T10:47:20;98981.97;;;31.19;44.55
22743;BME280;11538;48.884;8.696;2023-09-07T10:49:48;98977.25;;;31.33;45.30
22743;BME280;11538;48.884;8.696;2023-09-07T10:52:15;98971.13;;;31.21;44.72
22743;BME280;11538;48.884;8.696;2023-09-07T10:54:42;98980.28;;;31.55;44.01
22743;BME280;11538;48.884;8.696;2023-09-07T10:57:12;98967.25;;;31.82;45.70
22743;BME280;11538;48.884;8.696;2023-09-07T10:59:47;98970.72;;;31.86;45.13
22743;BME280;11538;48.884;8.696;2023-09-07T11:02:15;98968.28;;;32.17;43.28
22743;BME280;11538;48.884;8.696;2023-09-07T11:04:43;98964.13;;;32.22;43.20
22743;BME280;11538;48.884;8.696;2023-09-07T11:07:11;98961.66;;;32.24;42.99
22743;BME280;11538;48.884;8.696;2023-09-07T11:09:43;98958.47;;;32.38;43.58
22743;BME280;11538;48.884;8.696;2023-09-07T11:12:14;98954.09;;;32.37;41.23
22743;BME280;11538;48.884;8.696;2023-09-07T11:14:42;98957.28;;;32.52;41.32
22743;BME280;11538;48.884;8.696;2023-09-07T11:17:10;98959.03;;;32.89;41.17
22743;BME280;11538;48.884;8.696;2023-09-07T11:19:36;98954.78;;;33.10;40.64
22743;BME280;11538;48.884;8.696;2023-09-07T11:22:04;98967.22;;;33.35;39.44
22743;BME280;11538;48.884;8.696;2023-09-07T11:24:34;98957.75;;;33.54;38.75
22743;BME280;11538;48.884;8.696;2023-09-07T11:27:02;98956.59;;;33.65;38.29
22743;BME280;11538;48.884;8.696;2023-09-07T11:29:32;98956.16;;;34.02;37.80
22743;BME280;11538;48.884;8.696;2023-09-07T11:32:17;98962.13;;;34.04;37.54
22743;BME280;11538;48.884;8.696;2023-09-07T11:34:50;98959.34;;;34.48;36.90
22743;BME280;11538;48.884;8.696;2023-09-07T11:37:23;98952.66;;;34.96;36.04
22743;BME280;11538;48.884;8.696;2023-09-07T11:39:51;98959.31;;;35.11;35.75
22743;BME280;11538;48.884;8.696;2023-09-07T11:42:18;98957.81;;;35.38;35.24
22743;BME280;11538;48.884;8.696;2023-09-07T11:44:45;98956.88;;;35.32;34.79
22743;BME280;11538;48.884;8.696;2023-09-07T11:47:12;98961.47;;;35.48;34.90
22743;BME280;11538;48.884;8.696;2023-09-07T11:49:39;98954.44;;;35.71;34.47
22743;BME280;11538;48.884;8.696;2023-09-07T11:52:06;98960.41;;;35.74;34.91
22743;BME280;11538;48.884;8.696;2023-09-07T11:54:34;98951.66;;;35.81;34.64
22743;BME280;11538;48.884;8.696;2023-09-07T11:57:01;98954.47;;;36.09;34.32
22743;BME280;11538;48.884;8.696;2023-09-07T11:59:28;98956.06;;;36.10;33.35
22743;BME280;11538;48.884;8.696;2023-09-07T12:02:10;98951.66;;;36.09;33.70
22743;BME280;11538;48.884;8.696;2023-09-07T12:04:42;98949.25;;;36.35;32.93
22743;BME280;11538;48.884;8.696;2023-09-07T12:07:09;98945.09;;;36.73;33.05
22743;BME280;11538;48.884;8.696;2023-09-07T12:09:36;98955.16;;;36.75;32.34
22743;BME280;11538;48.884;8.696;2023-09-07T12:12:03;98946.06;;;36.70;32.30
22743;BME280;11538;48.884;8.696;2023-09-07T12:14:31;98942.28;;;36.73;32.63
22743;BME280;11538;48.884;8.696;2023-09-07T12:16:58;98947.50;;;36.56;32.79
22743;BME280;11538;48.884;8.696;2023-09-07T12:19:25;98948.97;;;36.85;32.19
22743;BME280;11538;48.884;8.696;2023-09-07T12:21:52;98935.88;;;37.07;31.93
22743;BME280;11538;48.884;8.696;2023-09-07T12:24:19;98933.19;;;37.03;32.11
22743;BME280;11538;48.884;8.696;2023-09-07T12:26:46;98935.94;;;37.22;31.86
22743;BME280;11538;48.884;8.696;2023-09-07T12:29:13;98942.38;;;37.22;31.43
22743;BME280;11538;48.884;8.696;2023-09-07T12:31:40;98935.69;;;37.35;31.06
22743;BME280;11538;48.884;8.696;2023-09-07T12:34:07;98941.47;;;37.16;31.59
22743;BME280;11538;48.884;8.696;2023-09-07T12:36:35;98934.72;;;37.38;31.28
22743;BME280;11538;48.884;8.696;2023-09-07T12:39:02;98943.13;;;37.56;31.26
22743;BME280;11538;48.884;8.696;2023-09-07T12:41:30;98938.19;;;37.66;30.63
22743;BME280;11538;48.884;8.696;2023-09-07T12:43:57;98931.91;;;37.38;31.10
22743;BME280;11538;48.884;8.696;2023-09-07T12:46:25;98930.06;;;37.59;30.76
22743;BME280;11538;48.884;8.696;2023-09-07T12:48:52;98925.13;;;37.84;30.40
22743;BME280;11538;48.884;8.696;2023-09-07T12:51:19;98926.09;;;37.81;30.35
22743;BME280;11538;48.884;8.696;2023-09-07T12:53:46;98926.69;;;37.85;30.46
22743;BME280;11538;48.884;8.696;2023-09-07T12:56:13;98927.69;;;37.82;30.34
22743;BME280;11538;48.884;8.696;2023-09-07T12:58:42;98923.88;;;37.85;30.10
22743;BME280;11538;48.884;8.696;2023-09-07T13:01:09;98924.47;;;37.89;30.43
22743;BME280;11538;48.884;8.696;2023-09-07T13:03:38;98922.28;;;38.08;29.90
22743;BME280;11538;48.884;8.696;2023-09-07T13:06:05;98917.59;;;38.05;29.82